Paddy Guidry — WTG3900 — position and weather

sailwx.info

Track history (hours):
 
Tides and Currents Weather Stations Pressure Air Temp Water Temp Dewpoint Dewpoint Depression Visibility Wind Speed Wind Dir Waves Ship Positions

Paddy Guidry

Owner: CAPTAIN TIMMY INC, GALLIANO, LA. More information available from US FCC via Universal Licensing System and Coast Guard Vessel Documentation Center.

Last reported at 2017-Mar-30 08:33 UTC. Time now 2017-Mar-31 00:37 UTC.
Position N 29°34' W 090°34'.

; draft 1.5 m.

Type: Tug. MMSI: 366998310.

Date/timePositionNaut miles runAvg speedWind from/ knotsBaromVisibWave heightAir tempDewpointWater temp
2017-Mar-30 08:33N 29°34' W 090°34'5 4.5
2017-Mar-30 07:33N 29°36' W 090°39'3 3.2
2017-Mar-30 06:33N 29°36' W 090°43'4 4.0
2017-Mar-30 05:33N 29°33' W 090°45'0 0.2
2017-Mar-30 04:33N 29°33' W 090°46'4 3.7
2017-Mar-30 03:33N 29°32' W 090°50'2 0.1
2017-Mar-29 08:30N 29°32' W 090°52'6 6.1
2017-Mar-29 07:33N 29°33' W 090°45'4 4.1
2017-Mar-29 06:34N 29°36' W 090°43'4 4.2
2017-Mar-29 05:33N 29°35' W 090°38'5 5.2
2017-Mar-29 04:33N 29°34' W 090°32'  
Track history (hours):
 
Tides and Currents Weather Stations Pressure Air Temp Water Temp Dewpoint Dewpoint Depression Visibility Wind Speed Wind Dir Waves Ship Positions

Paddy Guidry

Owner: CAPTAIN TIMMY INC, GALLIANO, LA. More information available from US FCC via Universal Licensing System and Coast Guard Vessel Documentation Center.

Last reported at 2017-Mar-30 08:33 UTC. Time now 2017-Mar-31 00:37 UTC.
Position N 29°34' W 090°34'.

; draft 1.5 m.

Type: Tug. MMSI: 366998310.

Date/timePositionNaut miles runAvg speedWind from/ knotsBaromVisibWave heightAir tempDewpointWater temp
2017-Mar-30 08:33N 29°34' W 090°34'5 4.5
2017-Mar-30 07:33N 29°36' W 090°39'3 3.2
2017-Mar-30 06:33N 29°36' W 090°43'4 4.0
2017-Mar-30 05:33N 29°33' W 090°45'0 0.2
2017-Mar-30 04:33N 29°33' W 090°46'4 3.7
2017-Mar-30 03:33N 29°32' W 090°50'2 0.1
2017-Mar-29 08:30N 29°32' W 090°52'6 6.1
2017-Mar-29 07:33N 29°33' W 090°45'4 4.1
2017-Mar-29 06:34N 29°36' W 090°43'4 4.2
2017-Mar-29 05:33N 29°35' W 090°38'5 5.2
2017-Mar-29 04:33N 29°34' W 090°32'  

Dump ship's entire track history